Time;durP1;ratioP1;P1;durP2;ratioP2;P2;SDS_P1;SDS_P2;PMS_P1;PMS_P2;Temp;Humidity;BMP_temperature;BMP_pressure;BME280_temperature;BME280_humidity;BME280_pressure;Samples;Min_cycle;Max_cycle;Signal;HPM_P1;HPM_P2
2023/03/26 00:01:23;;;;;;;15.55;2.72;;;;;;;7.03;100.00;100548.34;5062026;28;20036;-50
2023/03/26 00:03:53;;;;;;;14.27;2.38;;;;;;;7.04;100.00;100552.66;5059955;28;20146;-49
2023/03/26 00:06:24;;;;;;;14.02;3.05;;;;;;;7.04;100.00;100552.66;5060879;28;20066;-50
2023/03/26 00:08:53;;;;;;;15.35;3.20;;;;;;;7.07;100.00;100552.47;5056068;28;20086;-51
2023/03/26 00:11:23;;;;;;;16.88;2.53;;;;;;;7.08;100.00;100555.00;5060292;28;20087;-51
2023/03/26 00:13:55;;;;;;;13.82;2.83;;;;;;;7.07;100.00;100552.47;5060836;28;20044;-52
2023/03/26 00:16:25;;;;;;;17.58;2.72;;;;;;;7.09;100.00;100551.47;5061796;28;20068;-50
2023/03/26 00:18:53;;;;;;;18.33;3.83;;;;;;;7.11;100.00;100548.75;5062768;28;20119;-46
2023/03/26 00:21:26;;;;;;;12.40;2.67;;;;;;;7.14;100.00;100547.75;5059423;28;20484;-50
2023/03/26 00:23:55;;;;;;;21.20;3.13;;;;;;;7.15;100.00;100544.22;5057825;28;20053;-57
2023/03/26 00:26:23;;;;;;;18.02;3.67;;;;;;;7.15;100.00;100539.81;5058453;28;20052;-56
2023/03/26 00:28:53;;;;;;;19.05;3.25;;;;;;;7.15;100.00;100537.19;5057262;28;20036;-56
2023/03/26 00:31:22;;;;;;;22.13;3.10;;;;;;;7.16;100.00;100533.66;5055188;28;20488;-56
2023/03/26 00:33:53;;;;;;;21.45;3.45;;;;;;;7.17;100.00;100529.25;5051411;28;20048;-56
2023/03/26 00:36:24;;;;;;;19.60;3.97;;;;;;;7.17;100.00;100526.66;5056108;28;20041;-56
2023/03/26 00:38:53;;;;;;;22.77;3.47;;;;;;;7.18;100.00;100525.72;5060195;28;20123;-56
2023/03/26 00:41:24;;;;;;;24.10;3.65;;;;;;;7.21;100.00;100528.16;5055624;28;20037;-56
2023/03/26 00:43:56;;;;;;;21.45;3.83;;;;;;;7.24;100.00;100517.50;5060920;28;20029;-56
2023/03/26 00:46:25;;;;;;;23.23;4.00;;;;;;;7.23;100.00;100516.69;5061207;28;20118;-56
2023/03/26 00:48:57;;;;;;;21.48;3.38;;;;;;;7.25;100.00;100513.97;5061669;28;20033;-56
2023/03/26 00:51:27;;;;;;;26.45;4.25;;;;;;;7.24;100.00;100507.91;5070273;28;20045;-56
2023/03/26 00:53:56;;;;;;;19.77;3.80;;;;;;;7.26;100.00;100510.44;5071800;28;20045;-47
2023/03/26 00:56:25;;;;;;;25.75;4.75;;;;;;;7.26;100.00;100507.81;5068913;28;20113;-47
2023/03/26 00:58:56;;;;;;;24.38;4.13;;;;;;;7.25;100.00;100504.38;5068750;28;20048;-47
2023/03/26 01:01:27;;;;;;;24.30;4.07;;;;;;;7.26;100.00;100500.81;5071038;28;20059;-50
2023/03/26 01:03:58;;;;;;;21.65;4.22;;;;;;;7.25;100.00;100488.69;5064340;28;20128;-48
2023/03/26 01:06:40;;;;;;;18.20;4.43;;;;;;;7.26;100.00;100492.97;5051073;28;20057;-52
2023/03/26 01:09:14;;;;;;;21.05;4.40;;;;;;;7.25;100.00;100495.66;5071142;28;20053;-48
2023/03/26 01:11:44;;;;;;;26.75;4.78;;;;;;;7.25;100.00;100487.81;5074357;28;20052;-47
2023/03/26 01:14:16;;;;;;;26.02;4.68;;;;;;;7.23;100.00;100484.47;5066842;28;20637;-50
2023/03/26 01:16:45;;;;;;;;;;;;;;;7.23;100.00;100493.13;5060345;28;20487;-50
2023/03/26 01:19:21;;;;;;;29.02;5.38;;;;;;;7.22;100.00;100491.44;5064101;28;19929;-49
2023/03/26 01:21:49;;;;;;;28.30;4.47;;;;;;;7.24;100.00;100486.13;5066668;28;20483;-49
2023/03/26 01:24:19;;;;;;;24.85;4.45;;;;;;;7.25;100.00;100478.22;5064739;28;20063;-50
2023/03/26 01:27:00;;;;;;;27.95;5.55;;;;;;;7.26;100.00;100471.19;5061010;28;20053;-50
2023/03/26 01:29:32;;;;;;;22.95;5.75;;;;;;;7.27;100.00;100468.50;5062264;28;20052;-48
2023/03/26 01:32:09;;;;;;;31.95;5.63;;;;;;;7.26;100.00;100468.59;5057323;28;20837;-50
2023/03/26 01:34:51;;;;;;;29.02;5.70;;;;;;;7.27;100.00;100465.88;5064967;28;20040;-48
2023/03/26 01:37:26;;;;;;;33.63;6.70;;;;;;;7.28;100.00;100458.91;5059246;28;20048;-50
2023/03/26 01:40:04;;;;;;;28.23;5.28;;;;;;;7.29;100.00;100465.78;5059938;28;20773;-49
2023/03/26 01:42:37;;;;;;;26.38;5.43;;;;;;;7.32;100.00;100451.69;5059846;28;20060;-48
2023/03/26 01:45:11;;;;;;;22.00;4.38;;;;;;;7.34;100.00;100452.47;5060844;28;20044;-50
2023/03/26 01:47:42;;;;;;;29.30;5.32;;;;;;;7.36;100.00;100440.13;5058432;28;20036;-50
2023/03/26 01:50:11;;;;;;;29.45;4.90;;;;;;;7.36;100.00;100438.38;5064601;28;20137;-47
2023/03/26 01:52:39;;;;;;;32.10;5.82;;;;;;;7.39;100.00;100442.53;5060731;28;20495;-49
2023/03/26 01:55:11;;;;;;;23.73;5.22;;;;;;;7.41;100.00;100436.28;5063278;28;20106;-49
2023/03/26 01:57:52;;;;;;;28.42;5.88;;;;;;;7.40;100.00;100433.78;5058851;28;20053;-48
2023/03/26 02:00:28;;;;;;;27.90;6.22;;;;;;;7.40;100.00;100437.25;5062752;28;20049;-50
2023/03/26 02:03:16;;;;;;;22.42;5.07;;;;;;;7.41;100.00;100432.84;5060575;28;20484;-49
2023/03/26 02:05:52;;;;;;;28.50;4.95;;;;;;;7.42;100.00;100427.53;5063316;28;20541;-47
2023/03/26 02:08:24;;;;;;;31.45;5.68;;;;;;;7.45;100.00;100427.34;5061764;28;20099;-51
2023/03/26 02:10:57;;;;;;;25.73;5.55;;;;;;;7.45;100.00;100423.88;5058179;28;20048;-46
2023/03/26 02:13:26;;;;;;;32.38;5.85;;;;;;;7.45;100.00;100421.28;5063637;28;20076;-47
2023/03/26 02:15:56;;;;;;;27.80;6.50;;;;;;;7.45;100.00;100405.56;5061636;28;20115;-46
2023/03/26 02:18:34;;;;;;;34.33;5.78;;;;;;;7.37;100.00;100410.41;5059592;28;20471;-47
2023/03/26 02:21:08;;;;;;;27.35;6.30;;;;;;;7.41;100.00;100406.69;5059822;28;20041;-47
2023/03/26 02:23:37;;;;;;;26.90;4.93;;;;;;;7.42;100.00;100403.16;5059549;28;20402;-47
2023/03/26 02:26:08;;;;;;;29.05;6.25;;;;;;;7.49;100.00;100404.47;5061917;28;20102;-48
2023/03/26 02:28:37;;;;;;;30.25;6.75;;;;;;;7.44;100.00;100402.13;5063501;28;20109;-50
2023/03/26 02:31:08;;;;;;;26.35;6.70;;;;;;;7.44;100.00;100390.78;5061246;28;20037;-47
2023/03/26 02:33:37;;;;;;;27.70;7.38;;;;;;;7.47;100.00;100397.63;5057551;28;20565;-47
2023/03/26 02:36:07;;;;;;;30.63;6.38;;;;;;;7.47;100.00;100390.59;5058992;28;20053;-48
2023/03/26 02:38:35;;;;;;;28.98;7.07;;;;;;;7.49;100.00;100385.31;5061480;28;20047;-49
2023/03/26 02:41:05;;;;;;;24.95;6.75;;;;;;;7.50;100.00;100390.44;5058241;28;20064;-46
2023/03/26 02:43:35;;;;;;;29.38;6.00;;;;;;;7.49;100.00;100380.91;5057424;28;20509;-48
2023/03/26 02:46:04;;;;;;;27.83;6.57;;;;;;;7.50;100.00;100381.75;5056144;28;20051;-46
2023/03/26 02:48:33;;;;;;;29.40;6.93;;;;;;;7.49;100.00;100374.84;5059224;28;20041;-48
2023/03/26 02:51:01;;;;;;;33.88;7.38;;;;;;;7.47;100.00;100384.53;5073416;28;20491;-51
2023/03/26 02:53:31;;;;;;;32.47;7.00;;;;;;;7.48;100.00;100375.78;5073602;28;20048;-47
2023/03/26 02:56:00;;;;;;;28.73;6.65;;;;;;;7.47;100.00;100374.91;5073367;28;20072;-48
2023/03/26 02:58:28;;;;;;;26.02;7.05;;;;;;;7.47;100.00;100377.53;5067953;28;20081;-49
2023/03/26 03:00:58;;;;;;;28.70;7.30;;;;;;;7.49;100.00;100374.84;5060822;28;20051;-47
2023/03/26 03:03:28;;;;;;;31.23;7.75;;;;;;;7.47;100.00;100377.53;5060474;28;20080;-56
2023/03/26 03:05:57;;;;;;;31.13;6.35;;;;;;;7.47;100.00;100367.06;5060316;28;20036;-56
2023/03/26 03:08:28;;;;;;;34.60;7.90;;;;;;;7.49;100.00;100361.75;5058083;28;20130;-56
2023/03/26 03:10:57;;;;;;;33.95;7.85;;;;;;;7.49;100.00;100362.59;5054517;28;20140;-56
2023/03/26 03:13:25;;;;;;;33.28;8.32;;;;;;;7.44;100.00;100359.41;5049961;28;20049;-48
2023/03/26 03:15:57;;;;;;;36.83;7.60;;;;;;;7.47;100.00;100355.75;5058535;28;20044;-50
2023/03/26 03:18:26;;;;;;;28.63;6.90;;;;;;;7.51;100.00;100360.75;5054564;28;20068;-49
2023/03/26 03:20:54;;;;;;;32.42;6.93;;;;;;;7.50;100.00;100350.34;5058549;28;20495;-50
2023/03/26 03:23:22;;;;;;;29.70;7.43;;;;;;;7.46;100.00;100354.94;5057329;28;20048;-57
2023/03/26 03:25:51;;;;;;;33.58;7.35;;;;;;;7.50;100.00;100350.34;5062157;28;20063;-56
2023/03/26 03:28:19;;;;;;;35.83;9.35;;;;;;;7.47;100.00;100347.91;5059976;28;20500;-56
2023/03/26 03:30:47;;;;;;;30.73;8.10;;;;;;;7.49;100.00;100331.19;5058956;28;20045;-57
2023/03/26 03:33:19;;;;;;;34.83;9.05;;;;;;;7.51;100.00;100334.56;5056372;28;20090;-57
2023/03/26 03:35:48;;;;;;;29.92;7.70;;;;;;;7.51;100.00;100331.94;5063213;28;20041;-57
2023/03/26 03:38:17;;;;;;;35.22;7.82;;;;;;;7.53;100.00;100337.09;5057395;28;20061;-57
2023/03/26 03:40:48;;;;;;;27.50;8.20;;;;;;;7.53;100.00;100335.31;5059839;28;20044;-57
2023/03/26 03:43:16;;;;;;;32.15;8.13;;;;;;;7.54;100.00;100330.91;5057821;28;20053;-56
2023/03/26 03:45:46;;;;;;;37.45;8.68;;;;;;;7.52;100.00;100328.38;5057498;28;20075;-57
2023/03/26 03:48:18;;;;;;;28.58;7.00;;;;;;;7.53;100.00;100332.69;5059275;28;20350;-57
2023/03/26 03:50:46;;;;;;;24.52;7.80;;;;;;;7.54;100.00;100331.75;5059594;28;20090;-57
2023/03/26 03:53:15;;;;;;;29.40;7.53;;;;;;;7.59;100.00;100329.72;5064232;28;20049;-57
2023/03/26 03:55:51;;;;;;;27.73;7.35;;;;;;;7.59;100.00;100326.25;5065625;28;20044;-57
2023/03/26 03:58:21;;;;;;;30.42;7.70;;;;;;;7.59;100.00;100329.72;5060773;28;20080;-56
2023/03/26 04:00:52;;;;;;;29.40;7.22;;;;;;;7.57;100.00;100331.56;5058694;28;20041;-57
2023/03/26 04:03:21;;;;;;;29.00;7.50;;;;;;;7.60;100.00;100320.91;5057227;28;20064;-56
2023/03/26 04:06:01;;;;;;;29.48;6.93;;;;;;;7.54;100.00;100316.06;5061594;28;20048;-57
2023/03/26 04:08:29;;;;;;;27.35;6.20;;;;;;;7.59;100.00;100310.53;5060586;28;20498;-57
2023/03/26 04:10:57;;;;;;;30.35;6.45;;;;;;;7.60;100.00;100310.44;5059816;28;20487;-56
2023/03/26 04:13:26;;;;;;;26.98;6.20;;;;;;;7.61;100.00;100312.13;5063009;28;20044;-57
2023/03/26 04:15:54;;;;;;;22.45;5.35;;;;;;;7.63;100.00;100306.78;5051601;28;20040;-57
2023/03/26 04:18:26;;;;;;;27.77;5.82;;;;;;;7.64;100.00;100302.41;5055187;28;20055;-57
2023/03/26 04:20:54;;;;;;;30.00;5.90;;;;;;;7.64;100.00;100291.94;5056354;28;20155;-56
2023/03/26 04:23:23;;;;;;;23.30;5.53;;;;;;;7.64;100.00;100294.56;5055549;28;20392;-57
2023/03/26 04:25:54;;;;;;;23.67;5.90;;;;;;;7.63;100.00;100292.88;5055588;28;20137;-57
2023/03/26 04:28:29;;;;;;;26.05;6.13;;;;;;;7.62;100.00;100286.78;5057024;28;20052;-57
2023/03/26 04:31:00;;;;;;;21.50;5.10;;;;;;;7.55;100.00;100285.47;5057937;28;20048;-56
2023/03/26 04:33:32;;;;;;;25.85;5.20;;;;;;;7.58;100.00;100285.28;5061552;28;20056;-56
2023/03/26 04:36:01;;;;;;;26.85;5.20;;;;;;;7.54;100.00;100292.50;5054675;28;20123;-57
2023/03/26 04:38:32;;;;;;;22.55;5.45;;;;;;;7.54;100.00;100282.03;5054396;28;20558;-56
2023/03/26 04:41:02;;;;;;;23.42;4.75;;;;;;;7.54;100.00;100279.41;5054810;28;20124;-56
2023/03/26 04:43:34;;;;;;;26.88;6.20;;;;;;;7.54;100.00;100273.34;5060444;28;20513;-56
2023/03/26 04:46:03;;;;;;;27.90;5.60;;;;;;;7.55;100.00;100272.41;5059008;28;20697;-56
2023/03/26 04:48:32;;;;;;;29.30;4.60;;;;;;;7.49;100.00;100271.00;5061001;28;20514;-56
2023/03/26 04:51:05;;;;;;;22.70;4.40;;;;;;;7.53;100.00;100259.41;5060356;28;20079;-56
2023/03/26 04:53:35;;;;;;;19.92;5.32;;;;;;;7.54;100.00;100263.72;5072295;28;20069;-56
2023/03/26 04:56:09;;;;;;;23.92;5.07;;;;;;;7.54;100.00;100260.25;5075113;28;20090;-56
2023/03/26 04:58:37;;;;;;;21.65;5.30;;;;;;;7.55;100.00;100254.09;5072029;28;20052;-56
2023/03/26 05:01:06;;;;;;;25.60;5.05;;;;;;;7.56;100.00;100253.97;5072757;28;20079;-57
2023/03/26 05:03:40;;;;;;;21.88;5.65;;;;;;;7.61;100.00;100248.47;5051716;28;20080;-57
2023/03/26 05:06:11;;;;;;;20.75;4.97;;;;;;;7.60;100.00;100245.00;5052212;28;20048;-57
2023/03/26 05:08:40;;;;;;;24.30;5.07;;;;;;;7.62;100.00;100242.28;5055258;28;20048;-57
2023/03/26 05:11:11;;;;;;;21.77;4.75;;;;;;;7.61;100.00;100238.03;5073453;28;20087;-56
2023/03/26 05:13:41;;;;;;;20.58;4.53;;;;;;;7.61;100.00;100238.84;5075329;28;20127;-56
2023/03/26 05:16:11;;;;;;;26.30;6.30;;;;;;;7.64;100.00;100237.81;5075523;28;20048;-57
2023/03/26 05:18:40;;;;;;;24.83;5.03;;;;;;;7.63;100.00;100235.31;5071187;28;20037;-57
2023/03/26 05:21:09;;;;;;;25.45;4.63;;;;;;;7.63;100.00;100237.91;5055328;28;20041;-57
2023/03/26 05:23:37;;;;;;;26.27;4.47;;;;;;;7.64;100.00;100227.34;5060150;28;20430;-57
2023/03/26 05:26:07;;;;;;;26.08;5.20;;;;;;;7.64;100.00;100226.53;5058065;28;20067;-57
2023/03/26 05:28:35;;;;;;;23.55;5.70;;;;;;;7.65;100.00;100230.78;5058138;28;20107;-57
2023/03/26 05:31:04;;;;;;;25.83;5.15;;;;;;;7.63;100.00;100215.19;5060833;28;20454;-58
2023/03/26 05:33:32;;;;;;;24.90;5.32;;;;;;;7.63;100.00;100215.19;5057233;28;20128;-56
2023/03/26 05:36:03;;;;;;;26.25;4.88;;;;;;;7.64;100.00;100205.59;5057159;28;20049;-58
2023/03/26 05:38:31;;;;;;;26.38;4.20;;;;;;;7.60;100.00;100211.00;5059368;28;20041;-58
2023/03/26 05:41:00;;;;;;;21.70;4.57;;;;;;;7.61;100.00;100204.81;5056820;28;20041;-58
2023/03/26 05:43:29;;;;;;;22.33;4.47;;;;;;;7.59;100.00;100198.84;5057613;28;20044;-58
2023/03/26 05:45:57;;;;;;;30.17;4.63;;;;;;;7.60;100.00;100203.13;5061759;28;20048;-57
2023/03/26 05:48:26;;;;;;;25.98;5.57;;;;;;;7.60;100.00;100199.69;5059605;28;20404;-56
2023/03/26 05:50:56;;;;;;;22.70;5.30;;;;;;;7.55;100.00;100188.66;5062154;28;20071;-58
2023/03/26 05:53:27;;;;;;;22.33;5.10;;;;;;;7.55;100.00;100181.66;5058066;28;20052;-57
2023/03/26 05:55:56;;;;;;;21.15;5.05;;;;;;;7.54;100.00;100184.34;5062002;28;20094;-56
2023/03/26 05:58:25;;;;;;;22.10;4.85;;;;;;;7.51;100.00;100180.19;5067002;28;20118;-57
2023/03/26 06:00:58;;;;;;;25.15;5.32;;;;;;;7.53;100.00;100175.69;5064511;28;20045;-58
2023/03/26 06:03:26;;;;;;;;;;;;;;;7.46;100.00;100171.78;5054316;28;20053;-58
2023/03/26 06:05:57;;;;;;;19.08;3.63;;;;;;;7.48;100.00;100169.06;5056857;28;19928;-58
2023/03/26 06:08:27;;;;;;;20.63;4.45;;;;;;;7.43;100.00;100162.34;5060586;28;20918;-58
2023/03/26 06:10:59;;;;;;;19.17;4.20;;;;;;;7.49;100.00;100162.91;5063182;28;20059;-58
2023/03/26 06:13:27;;;;;;;25.33;5.05;;;;;;;7.47;100.00;100152.50;5058391;28;20056;-56
2023/03/26 06:15:56;;;;;;;27.83;5.65;;;;;;;7.49;100.00;100152.44;5064129;28;20533;-55
2023/03/26 06:18:24;;;;;;;21.35;4.65;;;;;;;7.46;100.00;100143.00;5063237;28;20177;-56
2023/03/26 06:20:53;;;;;;;29.30;5.13;;;;;;;7.48;100.00;100138.50;5059451;28;20545;-56
2023/03/26 06:23:22;;;;;;;23.45;4.93;;;;;;;7.48;100.00;100138.50;5060252;28;20083;-56
2023/03/26 06:25:51;;;;;;;25.73;4.97;;;;;;;7.50;100.00;100135.78;5057512;28;20032;-57
2023/03/26 06:28:19;;;;;;;17.85;4.80;;;;;;;7.50;100.00;100127.94;5057644;28;20064;-58
2023/03/26 06:30:48;;;;;;;22.23;4.55;;;;;;;7.49;100.00;100124.47;5059996;28;20529;-56
2023/03/26 06:33:16;;;;;;;23.52;4.88;;;;;;;7.50;100.00;100123.56;5059859;28;20070;-56
2023/03/26 06:35:45;;;;;;;24.25;4.80;;;;;;;7.48;100.00;100128.03;5058157;28;20044;-57
2023/03/26 06:38:13;;;;;;;19.52;5.55;;;;;;;7.49;100.00;100134.13;5054839;28;20123;-57
2023/03/26 06:40:41;;;;;;;21.48;4.75;;;;;;;7.48;100.00;100128.03;5057513;28;20064;-57
2023/03/26 06:43:11;;;;;;;25.55;5.00;;;;;;;7.48;100.00;100130.63;5059197;28;20487;-58
2023/03/26 06:45:39;;;;;;;20.70;5.07;;;;;;;7.48;100.00;100133.25;5058821;28;20059;-58
2023/03/26 06:48:07;;;;;;;27.38;4.45;;;;;;;7.53;100.00;100132.97;5054274;28;20048;-57
2023/03/26 06:50:35;;;;;;;24.17;5.45;;;;;;;7.55;100.00;100131.09;5067999;28;20049;-57
2023/03/26 06:53:03;;;;;;;18.88;4.70;;;;;;;7.55;100.00;100131.94;5088171;28;20146;-57
2023/03/26 06:55:34;;;;;;;25.33;5.13;;;;;;;7.57;100.00;100130.06;5082088;28;20519;-57
2023/03/26 06:58:02;;;;;;;23.42;4.55;;;;;;;7.54;100.00;100127.66;5073519;28;20422;-57
2023/03/26 07:00:31;;;;;;;25.42;4.63;;;;;;;7.59;100.00;100133.44;5066220;28;20562;-57
2023/03/26 07:02:59;;;;;;;25.10;5.25;;;;;;;7.59;100.00;100132.56;5058173;28;20131;-57
2023/03/26 07:05:28;;;;;;;25.50;4.60;;;;;;;7.60;100.00;100135.09;5057377;28;20052;-57
2023/03/26 07:07:56;;;;;;;21.08;4.10;;;;;;;7.65;100.00;100129.59;5058051;28;20063;-57
2023/03/26 07:10:24;;;;;;;24.35;4.80;;;;;;;7.63;100.00;100128.00;5064773;28;20059;-57
2023/03/26 07:12:53;;;;;;;19.35;3.90;;;;;;;7.71;100.00;100125.72;5070843;28;20540;-57
2023/03/26 07:15:21;;;;;;;20.50;4.65;;;;;;;7.66;100.00;100117.31;5068894;28;20055;-58
2023/03/26 07:17:51;;;;;;;22.48;4.70;;;;;;;7.64;100.00;100121.84;5066652;28;20097;-57
2023/03/26 07:20:19;;;;;;;24.10;4.55;;;;;;;7.67;100.00;100121.63;5062830;28;20127;-57
2023/03/26 07:22:48;;;;;;;29.52;5.05;;;;;;;7.65;100.00;100107.78;5058043;28;20489;-58
2023/03/26 07:25:17;;;;;;;29.70;5.60;;;;;;;7.70;100.00;100119.66;5058591;28;20131;-57
2023/03/26 07:27:59;;;;;;;17.17;4.32;;;;;;;7.70;100.00;100111.81;5059158;28;20028;-57
2023/03/26 07:30:38;;;;;;;25.13;5.03;;;;;;;7.71;100.00;100112.63;5057913;28;20061;-57
2023/03/26 07:33:15;;;;;;;21.73;4.65;;;;;;;7.67;100.00;100116.41;5059719;28;20526;-57
2023/03/26 07:35:53;;;;;;;28.90;5.35;;;;;;;7.71;100.00;100110.03;5063625;28;20403;-58
2023/03/26 07:38:36;;;;;;;21.85;5.47;;;;;;;7.70;100.00;100110.94;5069935;28;20055;-57
2023/03/26 07:41:11;;;;;;;19.10;3.65;;;;;;;7.72;100.00;100104.69;5068211;28;20052;-57
2023/03/26 07:44:00;;;;;;;17.10;4.65;;;;;;;7.75;100.00;100114.13;5068359;28;20048;-57
2023/03/26 07:46:32;;;;;;;28.00;4.32;;;;;;;7.74;100.00;100102.81;5059648;28;20105;-57
2023/03/26 07:49:03;;;;;;;;;;;;;;;7.73;100.00;100101.13;5060180;28;20070;-57
2023/03/26 07:51:32;;;;;;;25.35;5.28;;;;;;;7.83;100.00;100100.53;5068724;28;19924;-57
2023/03/26 07:54:03;;;;;;;24.92;5.15;;;;;;;7.82;100.00;100102.31;5068083;28;20045;-57
2023/03/26 07:56:37;;;;;;;21.70;4.30;;;;;;;7.75;100.00;100101.84;5070221;28;20040;-57
2023/03/26 07:59:23;;;;;;;30.85;5.65;;;;;;;7.82;100.00;100088.38;5068060;28;20052;-57
2023/03/26 08:02:13;;;;;;;26.60;5.07;;;;;;;7.90;100.00;100089.53;5051795;28;20123;-57
2023/03/26 08:04:59;;;;;;;22.52;4.88;;;;;;;7.82;100.00;100081.34;5049265;28;20060;-57
2023/03/26 08:07:40;;;;;;;26.13;4.55;;;;;;;7.81;100.00;100077.06;5052858;28;20514;-57
2023/03/26 08:10:16;;;;;;;19.98;4.22;;;;;;;7.88;100.00;100082.72;5056833;28;20082;-57
2023/03/26 08:12:55;;;;;;;27.23;4.82;;;;;;;7.91;100.00;100080.75;5053889;28;20041;-57
2023/03/26 08:15:29;;;;;;;18.27;4.72;;;;;;;7.98;100.00;100086.44;5053898;28;20438;-57
2023/03/26 08:18:05;;;;;;;21.00;4.40;;;;;;;7.94;100.00;100080.53;5049921;28;20041;-57
2023/03/26 08:20:42;;;;;;;24.48;5.05;;;;;;;7.95;100.00;100082.22;5054236;28;21170;-57
2023/03/26 08:23:20;;;;;;;20.02;3.85;;;;;;;7.95;100.00;100087.47;5055222;28;20051;-57
2023/03/26 08:26:01;;;;;;;27.40;5.05;;;;;;;7.94;100.00;100091.03;5055181;28;20044;-57
2023/03/26 08:28:49;;;;;;;24.98;5.45;;;;;;;7.91;100.00;100088.59;5061758;28;20561;-57
2023/03/26 08:31:31;;;;;;;18.90;4.97;;;;;;;7.92;100.00;100087.69;5054298;28;20041;-57
2023/03/26 08:34:02;;;;;;;;;;;;;;;7.93;100.00;100091.13;5051360;28;20048;-58
2023/03/26 08:36:32;;;;;;;20.95;4.75;;;;;;;7.95;100.00;100084.03;5051209;28;19924;-58
2023/03/26 08:39:00;;;;;;;18.92;3.58;;;;;;;7.99;100.00;100090.72;5051815;28;20495;-57
2023/03/26 08:42:01;;;;;;;22.63;4.35;;;;;;;7.86;100.00;100085.44;5057613;28;20077;-58
2023/03/26 08:45:06;;;;;;;19.70;4.00;;;;;;;7.84;100.00;100087.34;5048125;28;20049;-58
2023/03/26 08:48:19;;;;;;;16.27;4.10;;;;;;;7.88;100.00;100090.59;5052631;28;20056;-57
2023/03/26 08:51:23;;;;;;;17.98;4.00;;;;;;;7.83;100.00;100087.44;5043874;28;20525;-57
2023/03/26 08:54:42;;;;;;;18.33;3.97;;;;;;;7.87;100.00;100087.13;5040759;28;20106;-57
2023/03/26 08:57:33;;;;;;;14.80;4.50;;;;;;;7.81;100.00;100081.47;5051301;28;20041;-57
2023/03/26 09:00:25;;;;;;;14.45;4.13;;;;;;;7.87;100.00;100086.31;5054256;28;20109;-57
2023/03/26 09:03:29;;;;;;;15.57;4.17;;;;;;;7.87;100.00;100086.31;5069087;28;20045;-57
2023/03/26 09:06:36;;;;;;;16.83;4.68;;;;;;;7.92;100.00;100084.19;5062400;28;20916;-57
2023/03/26 09:09:32;;;;;;;14.48;4.18;;;;;;;7.92;100.00;100085.06;5054638;28;20083;-58
2023/03/26 09:12:44;;;;;;;18.77;3.97;;;;;;;7.81;100.00;100087.53;5052580;28;20068;-57
2023/03/26 09:16:09;;;;;;;12.80;3.90;;;;;;;7.86;100.00;100082.84;5056095;28;20563;-57
2023/03/26 09:19:13;;;;;;;13.68;4.47;;;;;;;7.86;100.00;100085.44;5053872;28;20560;-57
2023/03/26 09:22:17;;;;;;;15.40;4.40;;;;;;;7.82;100.00;100083.16;5055656;28;20412;-57
2023/03/26 09:25:12;;;;;;;;;;;;;;;7.89;100.00;100080.00;5052807;28;20045;-57
2023/03/26 09:28:10;;;;;;;14.27;3.75;;;;;;;7.91;100.00;100078.13;5053413;28;19921;-57
2023/03/26 09:31:12;;;;;;;14.75;3.75;;;;;;;7.90;100.00;100073.00;5052983;28;20045;-57
2023/03/26 09:33:56;;;;;;;16.20;4.32;;;;;;;8.04;100.00;100078.16;5055087;28;20349;-57
2023/03/26 09:36:54;;;;;;;17.02;4.55;;;;;;;8.03;100.00;100073.88;5058187;28;20139;-57
2023/03/26 09:39:36;;;;;;;12.90;4.25;;;;;;;8.07;100.00;100074.50;5044920;28;20057;-57
2023/03/26 09:42:16;;;;;;;14.02;4.30;;;;;;;8.08;100.00;100076.19;5057446;28;20205;-57
2023/03/26 09:45:29;;;;;;;11.48;4.55;;;;;;;8.07;100.00;100077.09;5056275;28;20449;-56
2023/03/26 09:48:26;;;;;;;14.30;4.35;;;;;;;8.12;100.00;100075.84;5043328;28;20438;-57
2023/03/26 09:51:06;;;;;;;12.70;4.53;;;;;;;8.15;100.00;100076.59;5053831;28;20541;-57
2023/03/26 09:53:50;;;;;;;14.85;4.22;;;;;;;8.18;100.00;100076.38;5054582;28;20430;-56
2023/03/26 09:56:29;;;;;;;13.07;4.00;;;;;;;8.25;100.00;100075.88;5062749;28;20044;-53
2023/03/26 09:59:24;;;;;;;13.95;4.25;;;;;;;8.28;100.00;100077.47;5052035;28;20045;-52
2023/03/26 10:02:08;;;;;;;13.55;4.57;;;;;;;8.26;100.00;100074.94;5051073;28;20061;-47
2023/03/26 10:05:15;;;;;;;18.00;4.25;;;;;;;8.27;100.00;100078.41;5052783;28;20044;-47
2023/03/26 10:07:58;;;;;;;16.20;4.65;;;;;;;8.33;100.00;100080.63;5050605;28;20056;-47
2023/03/26 10:10:33;;;;;;;14.18;3.58;;;;;;;8.37;100.00;100091.72;5056648;28;20056;-48
2023/03/26 10:13:14;;;;;;;14.10;3.95;;;;;;;8.36;100.00;100084.81;5061410;28;20048;-47
2023/03/26 10:15:58;;;;;;;12.18;3.30;;;;;;;8.34;100.00;100081.44;5059697;28;20041;-50
2023/03/26 10:18:38;;;;;;;14.45;3.55;;;;;;;8.45;100.00;100084.19;5053423;28;20102;-50
2023/03/26 10:21:11;;;;;;;13.65;4.25;;;;;;;8.53;100.00;100078.44;5054158;28;20064;-48
2023/03/26 10:24:06;;;;;;;10.82;3.55;;;;;;;8.70;100.00;100082.50;5063185;28;20639;-49
2023/03/26 10:26:50;;;;;;;13.25;3.50;;;;;;;8.72;100.00;100080.63;5075144;28;20442;-50
2023/03/26 10:30:12;;;;;;;15.05;4.10;;;;;;;8.74;100.00;100081.34;5071808;28;20525;-49
2023/03/26 10:32:51;;;;;;;16.40;3.58;;;;;;;8.80;100.00;100094.88;5073735;28;20430;-49
2023/03/26 10:35:32;;;;;;;11.38;3.70;;;;;;;8.89;100.00;100080.28;5073942;28;20063;-50
2023/03/26 10:38:12;;;;;;;14.75;3.35;;;;;;;8.82;100.00;100086.06;5058297;28;20048;-50
2023/03/26 10:40:51;;;;;;;14.20;3.67;;;;;;;8.82;100.00;100083.44;5061388;28;20254;-48
2023/03/26 10:43:49;;;;;;;11.63;3.35;;;;;;;8.90;100.00;100081.97;5058973;28;20036;-48
2023/03/26 10:47:00;;;;;;;13.35;3.47;;;;;;;8.99;100.00;100084.91;5039795;28;20056;-57
2023/03/26 10:50:13;;;;;;;17.90;3.85;;;;;;;9.03;100.00;100084.56;5052847;28;21189;-57
2023/03/26 10:52:54;;;;;;;10.18;3.30;;;;;;;9.14;100.00;100087.25;5055185;28;20170;-57
2023/03/26 10:55:28;;;;;;;16.08;4.45;;;;;;;9.18;100.00;100084.44;5051674;28;20044;-57
2023/03/26 10:58:00;;;;;;;14.95;4.43;;;;;;;9.08;100.00;100086.84;5062139;28;20044;-57
2023/03/26 11:00:29;;;;;;;12.70;4.32;;;;;;;9.06;100.00;100086.13;5064987;28;20056;-57
2023/03/26 11:03:26;;;;;;;16.10;4.75;;;;;;;9.00;100.00;100083.94;5058552;28;20764;-57
2023/03/26 11:06:03;;;;;;;14.52;4.15;;;;;;;8.95;100.00;100090.34;5056170;28;20576;-57
2023/03/26 11:08:42;;;;;;;13.40;3.80;;;;;;;8.82;100.00;100097.41;5056664;28;20040;-57
2023/03/26 11:11:23;;;;;;;11.00;3.35;;;;;;;8.82;100.00;100093.94;5056842;28;21293;-57
2023/03/26 11:14:00;;;;;;;13.35;3.90;;;;;;;8.66;100.00;100094.13;5058602;28;20502;-57
2023/03/26 11:16:42;;;;;;;13.38;4.65;;;;;;;8.55;100.00;100098.34;5053466;28;20646;-58
2023/03/26 11:19:20;;;;;;;10.90;4.75;;;;;;;8.39;100.00;100097.69;5054183;28;20800;-57
2023/03/26 11:21:54;;;;;;;13.27;5.40;;;;;;;8.39;100.00;100105.56;5054261;28;20091;-58
2023/03/26 11:24:47;;;;;;;12.93;6.38;;;;;;;8.27;100.00;100104.59;5054154;28;20037;-57
2023/03/26 11:27:24;;;;;;;;;;;;;;;8.15;100.00;100113.28;5048767;28;20082;-57
2023/03/26 11:30:03;;;;;;;14.77;6.53;;;;;;;8.16;100.00;100110.53;5058483;28;20362;-58
2023/03/26 11:32:38;;;;;;;14.43;8.10;;;;;;;8.08;100.00;100121.53;5057679;28;20040;-57
2023/03/26 11:35:09;;;;;;;19.02;9.18;;;;;;;7.99;100.00;100121.28;5055138;28;20045;-57
2023/03/26 11:37:42;;;;;;;20.17;8.82;;;;;;;7.95;100.00;100123.28;5053415;28;20476;-57
2023/03/26 11:40:19;;;;;;;17.55;8.88;;;;;;;7.87;100.00;100120.34;5056116;28;20032;-57
2023/03/26 11:42:50;;;;;;;17.33;8.75;;;;;;;7.91;100.00;100114.78;5050155;28;20040;-57
2023/03/26 11:45:22;;;;;;;20.52;9.77;;;;;;;7.90;100.00;100120.97;5056836;28;20169;-56
2023/03/26 11:47:56;;;;;;;19.17;8.90;;;;;;;7.89;100.00;100129.75;5051299;28;20049;-56
2023/03/26 11:50:29;;;;;;;20.48;8.90;;;;;;;7.93;100.00;100128.63;5053844;28;20471;-56
2023/03/26 11:53:02;;;;;;;19.20;9.38;;;;;;;7.83;100.00;100122.31;5054508;28;20049;-56
2023/03/26 11:55:32;;;;;;;20.67;8.77;;;;;;;7.91;100.00;100124.44;5070944;28;20110;-56
2023/03/26 11:58:04;;;;;;;17.58;9.00;;;;;;;7.95;100.00;100118.06;5071882;28;20394;-57